Time;durP1;ratioP1;P1;durP2;ratioP2;P2;SDS_P1;SDS_P2;PMS_P1;PMS_P2;Temp;Humidity;BMP_temperature;BMP_pressure;BME280_temperature;BME280_humidity;BME280_pressure;Samples;Min_cycle;Max_cycle;Signal;HPM_P1;HPM_P2
2024/04/07 00:01:33;;;;;;;0.10;0.10;;;;;;;12.11;55.73;98328.19;7352119;19;20032;-63
2024/04/07 00:04:02;;;;;;;0.10;0.10;;;;;;;12.11;55.93;98309.03;7360089;19;20010;-62
2024/04/07 00:06:28;;;;;;;0.15;0.15;;;;;;;12.08;55.95;98323.16;7358102;19;20999;-63
2024/04/07 00:08:54;;;;;;;0.10;0.10;;;;;;;11.92;55.61;98325.13;7361017;19;20029;-63
2024/04/07 00:11:19;;;;;;;0.10;0.10;;;;;;;11.89;55.65;98299.19;7358053;19;20006;-63
2024/04/07 00:13:45;;;;;;;0.10;0.10;;;;;;;11.95;55.40;98322.31;7361686;19;20010;-62
2024/04/07 00:16:11;;;;;;;0.10;0.10;;;;;;;11.87;55.62;98317.59;7355703;19;20421;-63
2024/04/07 00:18:36;;;;;;;0.05;0.05;;;;;;;11.95;55.65;98336.22;7356703;19;20106;-63
2024/04/07 00:21:03;;;;;;;0.10;0.10;;;;;;;11.80;55.77;98318.88;7357220;19;20009;-63
2024/04/07 00:23:28;;;;;;;0.10;0.10;;;;;;;11.76;55.63;98333.13;7360579;19;20390;-63
2024/04/07 00:25:54;;;;;;;0.10;0.10;;;;;;;11.92;55.59;98356.53;7357169;19;20011;-63
2024/04/07 00:28:19;;;;;;;0.10;0.10;;;;;;;11.91;55.99;98365.28;7361284;19;20027;-63
2024/04/07 00:30:45;;;;;;;0.10;0.10;;;;;;;11.82;56.17;98358.06;7353687;19;20015;-63
2024/04/07 00:33:10;;;;;;;0.10;0.10;;;;;;;11.90;55.50;98371.47;7357521;19;20017;-63
2024/04/07 00:35:36;;;;;;;0.10;0.10;;;;;;;11.89;55.62;98377.63;7356791;19;20006;-63
2024/04/07 00:38:01;;;;;;;0.10;0.10;;;;;;;11.87;55.35;98397.81;7358975;19;20038;-63
2024/04/07 00:40:26;;;;;;;0.10;0.10;;;;;;;11.88;54.79;98366.34;7359519;19;20027;-62
2024/04/07 00:42:54;;;;;;;0.00;0.00;;;;;;;11.87;54.55;98354.19;7356362;19;20017;-63
2024/04/07 00:45:20;;;;;;;0.03;0.03;;;;;;;11.77;54.39;98347.03;7357227;19;20002;-64
2024/04/07 00:47:46;;;;;;;0.08;0.08;;;;;;;11.84;54.39;98370.09;7354544;19;20014;-63
2024/04/07 00:50:13;;;;;;;0.10;0.10;;;;;;;11.85;54.48;98381.38;7358426;19;20918;-63
2024/04/07 00:52:38;;;;;;;0.10;0.10;;;;;;;11.83;54.42;98386.72;7358560;19;20479;-62
2024/04/07 00:55:07;;;;;;;0.05;0.05;;;;;;;11.81;54.33;98400.78;7356201;19;20029;-63
2024/04/07 00:57:33;;;;;;;0.10;0.10;;;;;;;11.75;54.67;98390.72;7357378;19;20078;-63
2024/04/07 00:59:59;;;;;;;0.10;0.10;;;;;;;11.76;54.76;98426.38;7360635;19;20010;-63
2024/04/07 01:02:24;;;;;;;0.10;0.10;;;;;;;11.74;54.38;98400.34;7353454;19;20021;-63
2024/04/07 01:04:50;;;;;;;0.10;0.10;;;;;;;11.69;54.70;98402.41;7356980;19;20783;-63
2024/04/07 01:07:16;;;;;;;0.10;0.10;;;;;;;11.73;54.81;98408.28;7355397;19;19999;-65
2024/04/07 01:09:42;;;;;;;0.10;0.10;;;;;;;11.66;54.57;98403.47;7357092;19;20015;-63
2024/04/07 01:12:14;;;;;;;0.10;0.10;;;;;;;11.76;54.76;98418.53;7357531;19;20015;-63
2024/04/07 01:14:40;;;;;;;0.10;0.10;;;;;;;11.68;54.61;98406.81;7359461;19;20117;-64
2024/04/07 01:17:06;;;;;;;0.10;0.10;;;;;;;11.60;55.00;98393.38;7355647;19;20018;-63
2024/04/07 01:19:32;;;;;;;0.10;0.10;;;;;;;11.75;55.03;98422.09;7356789;19;20018;-62
2024/04/07 01:21:57;;;;;;;0.10;0.10;;;;;;;11.76;55.11;98413.31;7352016;19;20011;-63
2024/04/07 01:24:23;;;;;;;0.10;0.10;;;;;;;11.76;54.73;98434.22;7358741;19;20478;-63
2024/04/07 01:26:48;;;;;;;0.10;0.10;;;;;;;11.71;55.05;98400.56;7356755;19;20041;-63
2024/04/07 01:29:14;;;;;;;0.10;0.10;;;;;;;11.74;54.91;98412.59;7359870;19;20115;-63
2024/04/07 01:31:39;;;;;;;0.10;0.10;;;;;;;11.66;55.11;98402.63;7350935;19;20576;-63
2024/04/07 01:34:04;;;;;;;0.10;0.10;;;;;;;11.74;55.28;98409.97;7358140;19;20026;-63
2024/04/07 01:36:30;;;;;;;0.00;0.00;;;;;;;11.67;55.22;98397.28;7353247;19;20756;-63
2024/04/07 01:38:55;;;;;;;0.10;0.10;;;;;;;11.72;55.80;98402.22;7357498;19;20046;-63
2024/04/07 01:41:21;;;;;;;0.10;0.10;;;;;;;11.59;55.34;98391.72;7354634;19;19999;-63
2024/04/07 01:43:46;;;;;;;0.00;0.00;;;;;;;11.72;55.66;98401.41;7356486;19;20347;-63
2024/04/07 01:46:12;;;;;;;0.10;0.10;;;;;;;11.64;55.98;98405.31;7359418;19;20014;-63
2024/04/07 01:48:37;;;;;;;0.10;0.10;;;;;;;11.67;55.71;98399.91;7355175;19;20022;-63
2024/04/07 01:51:03;;;;;;;0.10;0.10;;;;;;;11.63;56.29;98398.41;7353674;19;20007;-63
2024/04/07 01:53:29;;;;;;;0.10;0.10;;;;;;;11.52;55.53;98393.03;7352866;19;20026;-63
2024/04/07 01:55:54;;;;;;;0.10;0.10;;;;;;;11.67;55.83;98420.81;7351316;19;20014;-63
2024/04/07 01:58:21;;;;;;;0.03;0.03;;;;;;;11.61;56.38;98389.84;7353873;19;20408;-63
2024/04/07 02:00:46;;;;;;;0.10;0.10;;;;;;;11.68;56.09;98419.88;7358900;19;20011;-64
2024/04/07 02:03:12;;;;;;;0.10;0.10;;;;;;;11.64;56.04;98402.72;7354072;19;20017;-63
2024/04/07 02:05:38;;;;;;;0.10;0.10;;;;;;;11.70;56.24;98410.16;7353359;19;20015;-63
2024/04/07 02:08:03;;;;;;;0.20;0.20;;;;;;;11.72;56.08;98417.09;7358961;19;20760;-63
2024/04/07 02:10:29;;;;;;;0.10;0.10;;;;;;;11.64;55.75;98399.25;7356911;19;20014;-63
2024/04/07 02:12:54;;;;;;;0.10;0.10;;;;;;;11.66;56.14;98408.69;7357491;19;20066;-62
2024/04/07 02:15:20;;;;;;;0.10;0.10;;;;;;;11.72;55.96;98409.25;7357556;19;20850;-63
2024/04/07 02:17:46;;;;;;;0.10;0.10;;;;;;;11.61;56.28;98389.00;7357293;19;20015;-63
2024/04/07 02:20:11;;;;;;;0.10;0.10;;;;;;;11.55;56.07;98382.38;7350296;19;20039;-63
2024/04/07 02:22:37;;;;;;;0.10;0.10;;;;;;;11.64;56.17;98400.09;7357242;19;20835;-63
2024/04/07 02:25:03;;;;;;;0.10;0.10;;;;;;;11.76;56.59;98426.38;7345590;19;20014;-62
2024/04/07 02:27:29;;;;;;;0.10;0.10;;;;;;;11.76;56.88;98424.63;7358797;19;20018;-63
2024/04/07 02:29:54;;;;;;;0.10;0.10;;;;;;;11.79;56.37;98415.75;7358097;19;20437;-62
2024/04/07 02:32:20;;;;;;;0.10;0.10;;;;;;;11.82;56.58;98423.44;7354023;19;20458;-63
2024/04/07 02:34:46;;;;;;;0.10;0.10;;;;;;;11.70;56.78;98386.63;7357405;19;20027;-63
2024/04/07 02:37:12;;;;;;;0.10;0.10;;;;;;;11.65;57.08;98375.63;7351327;19;20018;-63
2024/04/07 02:39:37;;;;;;;0.10;0.10;;;;;;;11.86;56.94;98409.19;7357114;19;22730;-63
2024/04/07 02:42:03;;;;;;;0.10;0.10;;;;;;;11.85;56.58;98402.28;7356371;19;20018;-63
2024/04/07 02:50:01;;;;;;;0.10;0.10;;;;;;;11.77;56.03;98367.94;7357826;19;20013;-63
2024/04/07 02:52:26;;;;;;;0.10;0.10;;;;;;;11.41;55.88;98331.00;7353968;19;20006;-63
2024/04/07 02:54:52;;;;;;;0.10;0.10;;;;;;;11.95;56.14;98413.84;7354579;19;20010;-63
2024/04/07 02:57:17;;;;;;;0.10;0.10;;;;;;;11.96;55.77;98397.19;7351478;19;20003;-63
2024/04/07 02:59:42;;;;;;;0.08;0.08;;;;;;;11.85;56.18;98386.59;7357001;19;20018;-63
2024/04/07 03:02:08;;;;;;;0.10;0.10;;;;;;;11.95;55.94;98403.38;7346269;19;19998;-63
2024/04/07 03:04:33;;;;;;;0.10;0.10;;;;;;;11.95;56.19;98429.53;7357707;19;20027;-63
2024/04/07 03:07:00;;;;;;;0.10;0.10;;;;;;;11.95;55.90;98424.31;7350104;19;20771;-63
2024/04/07 03:09:27;;;;;;;0.10;0.10;;;;;;;11.92;55.90;98429.75;7356574;19;20499;-63
2024/04/07 03:11:53;;;;;;;0.10;0.10;;;;;;;11.90;55.85;98418.53;7354178;19;19994;-63
2024/04/07 03:14:19;;;;;;;0.10;0.10;;;;;;;11.89;55.60;98414.25;7330596;19;20039;-63
2024/04/07 03:16:45;;;;;;;0.10;0.10;;;;;;;11.86;56.31;98393.50;7361363;19;20006;-63
2024/04/07 03:19:11;;;;;;;0.10;0.10;;;;;;;11.81;56.31;98412.09;7364036;19;20007;-63
2024/04/07 03:21:36;;;;;;;0.10;0.10;;;;;;;11.81;56.51;98406.00;7363746;19;20017;-63
2024/04/07 03:24:02;;;;;;;0.10;0.10;;;;;;;11.78;56.68;98406.22;7368909;19;20038;-63
2024/04/07 03:26:27;;;;;;;0.10;0.10;;;;;;;11.72;56.34;98415.31;7366729;19;20003;-63
2024/04/07 03:28:53;;;;;;;0.10;0.10;;;;;;;11.72;56.58;98435.38;7363231;19;20004;-63
2024/04/07 03:31:18;;;;;;;0.10;0.10;;;;;;;11.63;56.51;98408.03;7363878;19;20086;-63
2024/04/07 03:33:47;;;;;;;0.10;0.10;;;;;;;11.66;56.44;98454.91;7366447;19;20006;-63
2024/04/07 03:36:13;;;;;;;0.10;0.10;;;;;;;11.62;56.28;98417.66;7365055;19;20250;-63
2024/04/07 03:38:38;;;;;;;0.10;0.10;;;;;;;11.57;56.94;98408.44;7367323;19;20485;-63
2024/04/07 03:41:04;;;;;;;0.10;0.10;;;;;;;11.52;56.43;98432.25;7363967;19;20502;-63
2024/04/07 03:43:29;;;;;;;0.10;0.10;;;;;;;11.49;56.52;98408.91;7365287;19;20007;-63
2024/04/07 03:46:04;;;;;;;0.10;0.10;;;;;;;11.46;57.25;98411.72;7362721;19;20014;-63
2024/04/07 03:48:30;;;;;;;0.10;0.10;;;;;;;11.39;57.09;98400.81;7366119;19;20006;-63
2024/04/07 03:50:56;;;;;;;0.13;0.13;;;;;;;11.37;57.85;98400.06;7364194;19;20013;-62
2024/04/07 03:53:25;;;;;;;0.10;0.10;;;;;;;11.33;57.75;98406.41;7365021;19;20867;-63
2024/04/07 03:55:51;;;;;;;0.10;0.10;;;;;;;11.16;57.17;98383.97;7360733;19;20066;-63
2024/04/07 03:58:16;;;;;;;0.10;0.10;;;;;;;11.29;57.74;98409.31;7369662;19;20010;-63
2024/04/07 04:00:42;;;;;;;0.05;0.05;;;;;;;11.27;57.79;98405.97;7368113;19;20018;-63
2024/04/07 04:03:07;;;;;;;0.10;0.10;;;;;;;11.25;57.82;98407.81;7367516;19;20007;-63
2024/04/07 04:05:32;;;;;;;0.10;0.10;;;;;;;11.24;57.96;98413.97;7367162;19;20585;-63
2024/04/07 04:07:58;;;;;;;0.10;0.10;;;;;;;11.23;58.24;98420.16;7369122;19;20013;-63
2024/04/07 04:10:23;;;;;;;0.10;0.10;;;;;;;11.22;58.70;98414.09;7365321;19;20593;-63
2024/04/07 04:12:49;;;;;;;0.10;0.10;;;;;;;11.22;58.46;98413.25;7368623;19;20044;-63
2024/04/07 04:15:14;;;;;;;0.10;0.10;;;;;;;11.18;58.68;98413.44;7367510;19;20007;-63
2024/04/07 04:17:39;;;;;;;0.10;0.10;;;;;;;11.21;58.75;98417.66;7366322;19;20505;-63
2024/04/07 04:20:08;;;;;;;0.10;0.10;;;;;;;11.21;58.87;98401.97;7367096;19;20005;-63
2024/04/07 04:22:33;;;;;;;0.10;0.10;;;;;;;11.22;59.11;98418.47;7366672;19;20014;-63
2024/04/07 04:24:59;;;;;;;0.10;0.10;;;;;;;11.09;58.92;98400.94;7358511;19;20105;-63
2024/04/07 04:27:24;;;;;;;0.10;0.10;;;;;;;11.16;58.62;98410.09;7365562;19;20013;-63
2024/04/07 04:29:51;;;;;;;0.10;0.10;;;;;;;11.25;58.64;98434.78;7366241;19;20025;-64
2024/04/07 04:32:17;;;;;;;0.10;0.10;;;;;;;11.25;59.48;98424.34;7368255;19;20723;-63
2024/04/07 04:34:43;;;;;;;0.10;0.10;;;;;;;11.26;59.49;98414.75;7366590;19;20006;-63
2024/04/07 04:37:08;;;;;;;0.05;0.05;;;;;;;11.26;59.72;98430.44;7367151;19;20921;-63
2024/04/07 04:39:33;;;;;;;0.10;0.10;;;;;;;11.26;59.07;98435.66;7366308;19;20038;-63
2024/04/07 04:41:59;;;;;;;0.10;0.10;;;;;;;11.30;59.44;98437.94;7366849;19;20018;-63
2024/04/07 04:44:27;;;;;;;0.10;0.10;;;;;;;11.33;60.07;98436.94;7363129;19;20003;-62
2024/04/07 04:46:52;;;;;;;0.10;0.10;;;;;;;11.34;60.09;98426.38;7367391;19;20018;-62
2024/04/07 04:49:18;;;;;;;0.10;0.10;;;;;;;11.35;60.02;98414.16;7359463;19;20699;-63
2024/04/07 04:51:44;;;;;;;0.10;0.10;;;;;;;11.39;59.19;98429.53;7363587;19;20011;-63
2024/04/07 04:54:11;;;;;;;0.10;0.10;;;;;;;11.40;59.17;98433.00;7363392;19;20005;-63
2024/04/07 04:56:37;;;;;;;0.10;0.10;;;;;;;11.42;59.47;98457.28;7363092;19;20040;-63
2024/04/07 04:59:03;;;;;;;0.10;0.10;;;;;;;11.41;59.70;98439.94;7365964;19;20577;-63
2024/04/07 05:01:29;;;;;;;0.10;0.10;;;;;;;11.42;59.59;98436.38;7359212;19;20018;-63
2024/04/07 05:03:54;;;;;;;0.10;0.10;;;;;;;11.42;59.30;98446.81;7368016;19;20002;-63
2024/04/07 05:06:20;;;;;;;0.10;0.10;;;;;;;11.32;59.54;98451.78;7366019;19;20034;-63
2024/04/07 05:08:47;;;;;;;0.17;0.17;;;;;;;11.39;60.01;98449.63;7366542;19;20830;-63
2024/04/07 05:11:13;;;;;;;0.10;0.10;;;;;;;11.36;59.70;98449.81;7362808;19;20490;-63
2024/04/07 05:13:39;;;;;;;0.10;0.10;;;;;;;11.23;60.17;98425.38;7365756;19;20577;-63
2024/04/07 05:16:05;;;;;;;0.08;0.08;;;;;;;11.36;59.47;98466.34;7365623;19;20019;-63
2024/04/07 05:18:32;;;;;;;0.10;0.10;;;;;;;11.29;59.66;98445.88;7368942;19;20034;-62
2024/04/07 05:21:03;;;;;;;0.00;0.00;;;;;;;11.32;59.89;98456.16;7362805;19;21282;-62
2024/04/07 05:23:28;;;;;;;0.10;0.10;;;;;;;11.28;59.99;98449.44;7366483;19;20776;-63
2024/04/07 05:25:54;;;;;;;0.10;0.10;;;;;;;11.28;59.69;98475.56;7363602;19;20085;-63
2024/04/07 05:28:19;;;;;;;0.10;0.10;;;;;;;11.24;59.63;98474.91;7366461;19;20017;-63
2024/04/07 05:30:44;;;;;;;0.10;0.10;;;;;;;11.18;59.75;98464.84;7366174;19;20018;-63
2024/04/07 05:33:10;;;;;;;0.10;0.10;;;;;;;11.22;59.53;98478.56;7363941;19;20657;-63
2024/04/07 05:35:35;;;;;;;0.10;0.10;;;;;;;11.20;59.61;98488.25;7365899;19;20363;-63
2024/04/07 05:38:02;;;;;;;0.10;0.10;;;;;;;11.20;59.68;98514.38;7364903;19;20010;-63
2024/04/07 05:40:27;;;;;;;0.10;0.10;;;;;;;11.10;59.47;98486.22;7364321;19;20678;-63
2024/04/07 05:42:53;;;;;;;0.00;0.00;;;;;;;11.15;59.11;98507.69;7365853;19;20006;-63
2024/04/07 05:45:19;;;;;;;0.10;0.10;;;;;;;11.13;59.60;98513.91;7364117;19;20014;-63
2024/04/07 05:47:49;;;;;;;0.10;0.10;;;;;;;11.09;59.92;98502.78;7365215;19;20484;-63
2024/04/07 05:50:14;;;;;;;0.20;0.20;;;;;;;11.10;59.87;98511.47;7364101;19;20528;-63
2024/04/07 05:52:41;;;;;;;0.00;0.00;;;;;;;11.02;60.02;98505.88;7360613;19;20104;-63
2024/04/07 05:55:08;;;;;;;0.10;0.10;;;;;;;11.06;59.52;98503.00;7366645;19;20407;-63
2024/04/07 05:57:35;;;;;;;0.10;0.10;;;;;;;11.02;59.85;98511.94;7357121;19;20030;-63
2024/04/07 06:00:01;;;;;;;0.10;0.10;;;;;;;11.05;60.12;98530.06;7363603;19;20017;-63
2024/04/07 06:02:27;;;;;;;0.10;0.10;;;;;;;11.05;59.93;98514.38;7365419;19;20086;-63
2024/04/07 06:04:52;;;;;;;0.10;0.10;;;;;;;11.05;59.93;98543.13;7363224;19;20013;-63
2024/04/07 06:07:18;;;;;;;0.10;0.10;;;;;;;11.02;59.99;98530.22;7361863;19;20006;-63
2024/04/07 06:09:47;;;;;;;0.10;0.10;;;;;;;11.04;60.01;98537.97;7365988;19;20011;-63
2024/04/07 06:12:13;;;;;;;0.10;0.10;;;;;;;11.00;60.30;98539.94;7362056;19;20356;-63
2024/04/07 06:14:38;;;;;;;0.10;0.10;;;;;;;10.99;60.45;98533.00;7361074;19;20086;-60
2024/04/07 06:17:04;;;;;;;0.10;0.10;;;;;;;10.99;60.14;98543.44;7361428;19;20021;-62
2024/04/07 06:19:29;;;;;;;0.10;0.10;;;;;;;10.99;60.28;98553.91;7365197;19;20074;-63
2024/04/07 06:21:54;;;;;;;0.10;0.10;;;;;;;10.85;60.12;98533.84;7363255;19;20010;-63
2024/04/07 06:24:20;;;;;;;0.10;0.10;;;;;;;10.98;60.45;98547.00;7359716;19;20696;-63
2024/04/07 06:26:45;;;;;;;0.00;0.00;;;;;;;10.99;60.00;98553.91;7362039;19;20033;-63
2024/04/07 06:29:10;;;;;;;0.10;0.10;;;;;;;11.01;59.95;98552.06;7360814;19;20027;-63
2024/04/07 06:31:36;;;;;;;0.10;0.10;;;;;;;11.03;60.04;98555.41;7361276;19;20011;-63
2024/04/07 06:34:03;;;;;;;0.00;0.00;;;;;;;10.99;60.37;98543.44;7364386;19;20002;-63
2024/04/07 06:36:29;;;;;;;0.10;0.10;;;;;;;10.80;60.24;98511.53;7362856;19;20018;-62
2024/04/07 06:38:54;;;;;;;0.10;0.10;;;;;;;11.05;60.01;98570.97;7361080;19;20014;-64
2024/04/07 06:41:20;;;;;;;0.00;0.00;;;;;;;11.06;60.01;98594.41;7362452;19;20011;-63
2024/04/07 06:43:45;;;;;;;0.10;0.10;;;;;;;11.06;60.00;98575.28;7360310;19;20017;-63
2024/04/07 06:46:10;;;;;;;0.10;0.10;;;;;;;11.05;59.99;98592.75;7360590;19;20041;-63
2024/04/07 06:48:36;;;;;;;0.17;0.17;;;;;;;11.13;60.25;98593.13;7360117;19;20090;-63
2024/04/07 06:51:01;;;;;;;0.10;0.10;;;;;;;11.16;60.19;98587.72;7357485;19;20086;-63
2024/04/07 06:53:27;;;;;;;0.10;0.10;;;;;;;11.16;60.21;98582.50;7360059;19;20010;-63
2024/04/07 06:55:52;;;;;;;0.13;0.13;;;;;;;11.21;60.39;98610.13;7354635;19;20014;-63
2024/04/07 06:58:18;;;;;;;0.10;0.10;;;;;;;11.23;59.91;98603.88;7360313;19;20005;-63
2024/04/07 07:00:43;;;;;;;0.10;0.10;;;;;;;11.26;60.17;98602.84;7360134;19;20010;-62
2024/04/07 07:03:08;;;;;;;0.00;0.00;;;;;;;11.28;60.13;98619.28;7364007;19;20002;-63
2024/04/07 07:05:34;;;;;;;0.10;0.10;;;;;;;11.33;59.83;98620.69;7360586;19;20030;-63
2024/04/07 07:07:59;;;;;;;0.10;0.10;;;;;;;11.37;60.04;98642.25;7359358;19;20010;-63
2024/04/07 07:10:25;;;;;;;0.10;0.10;;;;;;;11.40;59.90;98621.16;7361043;19;20021;-63
2024/04/07 07:12:50;;;;;;;0.10;0.10;;;;;;;11.37;59.84;98626.56;7360338;19;20465;-63
2024/04/07 07:15:16;;;;;;;0.10;0.10;;;;;;;11.44;59.74;98628.72;7361967;19;20015;-63
2024/04/07 07:17:41;;;;;;;0.10;0.10;;;;;;;11.48;59.68;98639.84;7363265;19;20010;-63
2024/04/07 07:20:07;;;;;;;0.10;0.10;;;;;;;11.53;59.71;98652.63;7356706;19;20031;-62
2024/04/07 07:22:32;;;;;;;0.10;0.10;;;;;;;11.57;59.50;98649.75;7362958;19;20018;-62
2024/04/07 07:24:58;;;;;;;0.00;0.00;;;;;;;11.60;59.21;98664.41;7358766;19;20010;-63
2024/04/07 07:27:23;;;;;;;0.00;0.00;;;;;;;11.61;59.23;98634.75;7360758;19;20003;-63
2024/04/07 07:29:48;;;;;;;0.10;0.10;;;;;;;11.64;59.24;98674.59;7357334;19;20018;-63
2024/04/07 07:32:15;;;;;;;0.15;0.15;;;;;;;11.68;58.82;98668.25;7363480;19;20019;-63
2024/04/07 07:34:40;;;;;;;0.10;0.10;;;;;;;11.73;58.50;98654.06;7354945;19;20011;-63
2024/04/07 07:37:06;;;;;;;0.10;0.10;;;;;;;11.76;58.00;98659.97;7360493;19;20071;-62
2024/04/07 07:39:31;;;;;;;0.00;0.00;;;;;;;11.82;58.46;98653.56;7362503;19;20047;-63
2024/04/07 07:41:57;;;;;;;0.05;0.05;;;;;;;11.85;57.93;98666.41;7358841;19;20018;-63
2024/04/07 07:44:22;;;;;;;0.10;0.10;;;;;;;11.88;58.08;98687.19;7355750;19;20006;-63
2024/04/07 07:46:47;;;;;;;0.10;0.10;;;;;;;11.92;57.81;98670.38;7362060;19;20014;-63
2024/04/07 07:49:13;;;;;;;0.20;0.20;;;;;;;11.95;57.44;98678.00;7354491;19;20030;-63
2024/04/07 07:51:38;;;;;;;0.13;0.13;;;;;;;11.95;57.75;98657.09;7358013;19;20018;-63
2024/04/07 07:54:04;;;;;;;0.10;0.10;;;;;;;11.97;57.29;98657.84;7355582;19;20002;-61
2024/04/07 07:56:29;;;;;;;0.10;0.10;;;;;;;11.90;57.53;98638.22;7361053;19;20038;-63
2024/04/07 07:58:54;;;;;;;0.10;0.10;;;;;;;12.08;57.13;98681.56;7359707;19;20350;-63
2024/04/07 08:01:20;;;;;;;0.10;0.10;;;;;;;12.10;57.15;98666.63;7357521;19;20038;-63
2024/04/07 08:03:45;;;;;;;0.10;0.10;;;;;;;12.13;57.64;98695.22;7368020;19;21055;-63
2024/04/07 08:06:11;;;;;;;0.10;0.10;;;;;;;12.12;57.63;98677.84;7363591;19;20360;-63
2024/04/07 08:08:36;;;;;;;0.10;0.10;;;;;;;12.20;57.64;98662.50;7366501;19;20007;-63
2024/04/07 08:11:01;;;;;;;0.10;0.10;;;;;;;12.22;57.32;98680.75;7362562;19;20022;-63
2024/04/07 08:13:27;;;;;;;0.10;0.10;;;;;;;12.30;56.67;98682.88;7367263;19;20881;-63
2024/04/07 08:15:53;;;;;;;0.10;0.10;;;;;;;12.37;56.04;98678.94;7362134;19;20868;-63
2024/04/07 08:18:18;;;;;;;0.10;0.10;;;;;;;12.34;55.84;98666.03;7368248;19;20073;-63
2024/04/07 08:20:44;;;;;;;0.10;0.10;;;;;;;12.27;56.30;98655.13;7361687;19;20345;-62
2024/04/07 08:23:10;;;;;;;0.00;0.00;;;;;;;12.46;56.21;98697.50;7365425;19;20380;-63
2024/04/07 08:25:36;;;;;;;0.10;0.10;;;;;;;12.50;55.59;98686.84;7365907;19;20015;-63
2024/04/07 08:28:04;;;;;;;0.10;0.10;;;;;;;12.54;55.58;98683.97;7367198;19;20088;-63
2024/04/07 08:30:29;;;;;;;0.10;0.10;;;;;;;12.51;55.08;98689.38;7367663;19;20018;-63
2024/04/07 08:32:55;;;;;;;0.10;0.10;;;;;;;12.64;54.29;98668.50;7361433;19;20018;-63
2024/04/07 08:35:21;;;;;;;0.10;0.10;;;;;;;12.67;54.56;98663.94;7364822;19;20806;-63
2024/04/07 08:37:46;;;;;;;0.10;0.10;;;;;;;12.78;54.38;98671.09;7360025;19;20009;-63
2024/04/07 08:40:12;;;;;;;0.10;0.10;;;;;;;12.94;54.65;98682.25;7363513;19;20011;-63
2024/04/07 08:42:40;;;;;;;0.00;0.00;;;;;;;13.07;53.84;98673.59;7365094;19;20011;-63
2024/04/07 08:45:07;;;;;;;0.10;0.10;;;;;;;13.19;53.48;98676.25;7359389;19;20363;-63
2024/04/07 08:47:35;;;;;;;0.10;0.10;;;;;;;13.35;53.75;98693.63;7363864;19;20002;-64
2024/04/07 08:50:02;;;;;;;0.10;0.10;;;;;;;13.40;53.38;98666.16;7364283;19;20010;-63
2024/04/07 08:52:28;;;;;;;0.10;0.10;;;;;;;13.61;53.75;98703.22;7362246;19;20014;-63
2024/04/07 08:54:54;;;;;;;0.10;0.10;;;;;;;13.77;52.56;98687.28;7364574;19;20015;-63
2024/04/07 08:57:22;;;;;;;0.10;0.10;;;;;;;13.96;52.88;98686.88;7359201;19;20010;-63
2024/04/07 08:59:50;;;;;;;;;;;;;;;14.17;53.46;98695.88;7368725;19;20023;-63
2024/04/07 09:02:16;;;;;;;0.03;0.03;;;;;;;14.25;52.12;98680.44;7354971;19;19919;-64
2024/04/07 09:04:42;;;;;;;0.10;0.10;;;;;;;14.42;51.39;98725.69;7361119;19;20010;-63
2024/04/07 09:07:07;;;;;;;0.10;0.10;;;;;;;14.54;51.47;98714.34;7361395;19;20015;-64
2024/04/07 09:09:33;;;;;;;0.10;0.10;;;;;;;14.54;52.03;98682.81;7363395;19;20014;-63
2024/04/07 09:11:59;;;;;;;0.10;0.10;;;;;;;14.70;51.26;98700.94;7362501;19;20494;-63
2024/04/07 09:14:26;;;;;;;0.10;0.10;;;;;;;14.87;51.08;98705.00;7360100;19;20517;-64
2024/04/07 09:17:04;;;;;;;0.10;0.10;;;;;;;15.10;51.61;98706.78;7364031;19;20746;-63
2024/04/07 09:19:34;;;;;;;0.10;0.10;;;;;;;15.24;50.71;98714.50;7368102;19;20010;-64
2024/04/07 09:21:59;;;;;;;0.10;0.10;;;;;;;15.38;50.78;98713.50;7360378;19;20371;-63
2024/04/07 09:24:25;;;;;;;0.10;0.10;;;;;;;15.62;49.66;98712.63;7356500;19;20014;-63
2024/04/07 09:26:52;;;;;;;0.10;0.10;;;;;;;15.83;49.20;98719.78;7358385;19;20791;-64
2024/04/07 09:29:17;;;;;;;0.10;0.10;;;;;;;15.98;48.74;98727.47;7359489;19;20462;-63
2024/04/07 09:31:43;;;;;;;0.10;0.10;;;;;;;16.14;48.31;98733.22;7365200;19;20038;-63
2024/04/07 09:34:09;;;;;;;0.10;0.10;;;;;;;16.30;46.83;98731.06;7361371;19;20007;-63
2024/04/07 09:36:34;;;;;;;0.10;0.10;;;;;;;16.39;47.66;98723.44;7365492;19;20014;-63
2024/04/07 09:38:59;;;;;;;0.10;0.10;;;;;;;16.47;47.56;98736.81;7360716;19;20021;-63
2024/04/07 09:41:29;;;;;;;0.20;0.20;;;;;;;16.57;46.25;98743.03;7363389;19;20471;-64
2024/04/07 09:43:55;;;;;;;0.20;0.20;;;;;;;16.60;47.18;98738.38;7355381;19;20040;-63
2024/04/07 09:46:22;;;;;;;0.10;0.10;;;;;;;16.71;47.68;98739.31;7364161;19;20010;-63
2024/04/07 09:48:50;;;;;;;0.10;0.10;;;;;;;16.94;47.64;98746.28;7361686;19;20018;-63
2024/04/07 09:51:21;;;;;;;0.08;0.08;;;;;;;17.16;48.36;98745.38;7363601;19;20030;-63
2024/04/07 09:53:49;;;;;;;0.10;0.10;;;;;;;17.34;45.95;98743.91;7359487;19;20034;-63
2024/04/07 09:56:22;;;;;;;0.10;0.10;;;;;;;17.59;46.96;98757.72;7356141;19;20022;-63
2024/04/07 09:58:48;;;;;;;0.10;0.10;;;;;;;17.56;44.37;98721.84;7361451;19;20463;-63
2024/04/07 10:01:14;;;;;;;0.13;0.13;;;;;;;17.77;44.59;98750.94;7362406;19;20034;-63
2024/04/07 10:03:39;;;;;;;0.10;0.10;;;;;;;17.80;43.77;98745.41;7360696;19;20102;-63
2024/04/07 10:06:05;;;;;;;0.10;0.10;;;;;;;17.88;44.32;98769.34;7360561;19;20010;-63
2024/04/07 10:08:31;;;;;;;0.10;0.10;;;;;;;17.88;44.07;98737.66;7362207;19;20015;-63
2024/04/07 10:10:57;;;;;;;0.10;0.10;;;;;;;17.91;43.47;98741.84;7358410;19;20011;-64
2024/04/07 10:13:23;;;;;;;0.20;0.20;;;;;;;18.02;43.19;98741.78;7360691;19;20034;-63
2024/04/07 10:15:50;;;;;;;0.10;0.10;;;;;;;18.14;44.92;98766.31;7361104;19;20017;-63
2024/04/07 10:18:17;;;;;;;0.10;0.10;;;;;;;18.24;43.62;98738.16;7363513;19;20045;-63
2024/04/07 10:20:44;;;;;;;0.10;0.10;;;;;;;18.39;43.83;98752.69;7325473;19;21748;-63
2024/04/07 10:23:13;;;;;;;0.10;0.10;;;;;;;18.66;44.57;98759.22;7360884;19;20600;-63
2024/04/07 10:25:46;;;;;;;0.10;0.10;;;;;;;18.93;44.04;98772.69;7358609;19;20025;-63
2024/04/07 10:28:12;;;;;;;0.10;0.10;;;;;;;19.09;42.47;98742.22;7363437;19;20022;-64
2024/04/07 10:30:51;;;;;;;0.10;0.10;;;;;;;19.31;43.03;98749.94;7365619;19;20498;-63
2024/04/07 10:33:20;;;;;;;0.10;0.10;;;;;;;19.45;41.53;98741.56;7363691;19;20482;-63
2024/04/07 10:36:14;;;;;;;0.10;0.10;;;;;;;19.59;43.05;98773.91;7363378;19;20026;-63
2024/04/07 10:38:57;;;;;;;0.10;0.10;;;;;;;19.67;41.15;98734.38;7362753;19;20014;-63
2024/04/07 10:41:23;;;;;;;0.10;0.10;;;;;;;19.78;41.44;98768.66;7363993;19;20090;-63
2024/04/07 10:43:49;;;;;;;0.10;0.10;;;;;;;19.88;41.24;98744.81;7362247;19;20006;-63
2024/04/07 10:46:17;;;;;;;0.10;0.10;;;;;;;19.93;40.07;98759.28;7363209;19;20509;-64
2024/04/07 10:48:43;;;;;;;0.10;0.10;;;;;;;19.96;39.39;98750.22;7360033;19;20014;-63
2024/04/07 10:51:09;;;;;;;0.10;0.10;;;;;;;20.01;42.59;98769.16;7357424;19;20363;-62
2024/04/07 10:53:36;;;;;;;0.10;0.10;;;;;;;19.91;42.92;98773.63;7360166;19;20486;-62
2024/04/07 10:56:01;;;;;;;0.10;0.10;;;;;;;19.69;46.31;98820.63;7365583;19;20019;-61
2024/04/07 10:58:27;;;;;;;0.10;0.10;;;;;;;19.29;50.74;98846.31;7363038;19;20815;-62
2024/04/07 11:00:52;;;;;;;0.10;0.10;;;;;;;18.64;52.82;98820.13;7359358;19;20033;-61
2024/04/07 11:03:18;;;;;;;0.10;0.10;;;;;;;18.19;55.45;98824.88;7362424;19;20010;-62
2024/04/07 11:05:43;;;;;;;0.10;0.10;;;;;;;17.67;56.77;98823.91;7359323;19;20022;-62
2024/04/07 11:08:10;;;;;;;0.10;0.10;;;;;;;17.19;60.35;98813.72;7355932;19;20019;-62
2024/04/07 11:10:39;;;;;;;0.10;0.10;;;;;;;16.96;59.96;98812.06;7362516;19;20759;-63
2024/04/07 11:13:08;;;;;;;0.20;0.20;;;;;;;16.82;62.57;98795.53;7365334;19;20483;-64
2024/04/07 11:15:34;;;;;;;0.10;0.10;;;;;;;16.95;62.71;98810.41;7360483;19;20376;-64
2024/04/07 11:17:59;;;;;;;0.10;0.10;;;;;;;16.84;65.11;98788.34;7362380;19;20026;-64
2024/04/07 11:20:26;;;;;;;0.10;0.10;;;;;;;17.24;64.15;98816.84;7359281;19;20010;-64
2024/04/07 11:22:51;;;;;;;0.10;0.10;;;;;;;17.44;64.11;98801.19;7362031;19;20015;-65
2024/04/07 11:25:20;;;;;;;0.10;0.10;;;;;;;17.73;64.83;98799.66;7351100;19;20018;-64
2024/04/07 11:27:45;;;;;;;0.10;0.10;;;;;;;18.05;63.91;98796.16;7360669;19;20022;-64
2024/04/07 11:30:11;;;;;;;0.10;0.10;;;;;;;18.28;64.64;98799.50;7362015;19;20527;-64
2024/04/07 11:32:37;;;;;;;0.10;0.10;;;;;;;18.65;62.44;98798.03;7359320;19;20028;-64
2024/04/07 11:35:03;;;;;;;0.10;0.10;;;;;;;19.01;61.38;98816.13;7361787;19;20011;-64